createdAt,value
2017-12-16T00:01:39.043Z,95.20
2017-12-16T00:04:06.778Z,95.76
2017-12-16T00:06:34.363Z,96.00
2017-12-16T00:09:01.943Z,96.41
2017-12-16T00:11:29.519Z,96.56
2017-12-16T00:13:57.147Z,97.06
2017-12-16T00:16:24.781Z,96.51
2017-12-16T00:18:52.443Z,96.03
2017-12-16T00:21:20.100Z,97.07
2017-12-16T00:23:47.773Z,97.76
2017-12-16T00:26:15.360Z,97.62
2017-12-16T00:28:43.041Z,96.13
2017-12-16T00:31:10.623Z,95.43
2017-12-16T00:33:38.200Z,96.71
2017-12-16T00:36:05.915Z,97.36
2017-12-16T00:38:33.489Z,97.19
2017-12-16T00:41:01.083Z,95.76
2017-12-16T00:43:28.662Z,96.37
2017-12-16T00:45:56.324Z,96.84
2017-12-16T00:48:23.987Z,95.93
2017-12-16T00:50:51.646Z,96.01
2017-12-16T00:53:19.230Z,94.94
2017-12-16T00:55:46.908Z,96.75
2017-12-16T00:58:14.487Z,96.94
2017-12-16T01:00:42.068Z,96.75
2017-12-16T01:03:09.638Z,96.95
2017-12-16T01:05:37.217Z,97.13
2017-12-16T01:08:04.931Z,97.00
2017-12-16T01:10:32.502Z,97.42
2017-12-16T01:13:00.080Z,96.98
2017-12-16T01:15:27.655Z,96.62
2017-12-16T01:17:55.304Z,97.11
2017-12-16T01:20:22.992Z,97.56
2017-12-16T01:22:50.571Z,97.50
2017-12-16T01:25:18.144Z,97.50
2017-12-16T01:27:45.723Z,98.13
2017-12-16T01:30:13.308Z,96.65
2017-12-16T01:32:40.887Z,97.47
2017-12-16T01:35:20.241Z,97.55
2017-12-16T01:37:59.583Z,97.54
2017-12-16T01:40:27.268Z,96.29
2017-12-16T01:42:54.934Z,96.68
2017-12-16T01:45:22.511Z,96.49
2017-12-16T01:47:50.124Z,96.53
2017-12-16T01:50:17.775Z,95.68
2017-12-16T01:52:45.394Z,96.11
2017-12-16T01:55:12.974Z,96.13
2017-12-16T01:57:40.550Z,96.18
2017-12-16T02:00:08.159Z,96.22
2017-12-16T02:02:35.777Z,96.44
2017-12-16T02:05:03.356Z,95.75
2017-12-16T02:07:30.936Z,95.96
2017-12-16T02:09:58.569Z,95.60
2017-12-16T02:12:26.151Z,95.98
2017-12-16T02:14:53.803Z,95.94
2017-12-16T02:17:21.375Z,96.03
2017-12-16T02:19:48.991Z,96.09
2017-12-16T02:22:16.576Z,95.64
2017-12-16T02:24:44.159Z,95.84
2017-12-16T02:27:11.739Z,96.09
2017-12-16T02:29:39.313Z,96.23
2017-12-16T02:32:06.939Z,95.84
2017-12-16T02:34:34.511Z,96.35
2017-12-16T02:37:02.084Z,97.01
2017-12-16T02:39:29.663Z,96.90
2017-12-16T02:41:57.475Z,96.25
2017-12-16T02:44:25.086Z,96.08
2017-12-16T02:46:52.667Z,95.11
2017-12-16T02:49:20.235Z,95.49
2017-12-16T02:51:47.806Z,94.82
2017-12-16T02:54:15.377Z,94.52
2017-12-16T02:56:42.948Z,94.82
2017-12-16T02:59:10.609Z,95.34
2017-12-16T03:01:38.177Z,95.38
2017-12-16T03:04:05.823Z,95.38
2017-12-16T03:06:33.396Z,95.14
2017-12-16T03:09:01.042Z,95.09
2017-12-16T03:11:28.711Z,94.80
2017-12-16T03:13:56.379Z,95.20
2017-12-16T03:16:24.040Z,95.35
2017-12-16T03:18:51.610Z,95.52
2017-12-16T03:21:19.187Z,95.40
2017-12-16T03:23:46.767Z,95.72
2017-12-16T03:26:15.334Z,95.76
2017-12-16T03:28:42.971Z,95.70
2017-12-16T03:31:10.624Z,95.11
2017-12-16T03:33:38.190Z,95.52
2017-12-16T03:36:05.760Z,95.32
2017-12-16T03:38:34.284Z,95.11
2017-12-16T03:41:01.856Z,95.73
2017-12-16T03:43:29.464Z,95.93
2017-12-16T03:45:57.043Z,95.46
2017-12-16T03:48:25.404Z,95.22
2017-12-16T03:50:53.061Z,96.32
2017-12-16T03:53:21.555Z,95.50
2017-12-16T03:55:49.124Z,95.75
2017-12-16T03:58:17.631Z,96.27
2017-12-16T04:00:45.947Z,95.70
2017-12-16T04:03:14.427Z,95.45
2017-12-16T04:05:42.707Z,96.13
2017-12-16T04:08:10.547Z,95.91
2017-12-16T04:10:38.128Z,96.19
2017-12-16T04:13:06.490Z,96.60
2017-12-16T04:15:34.942Z,96.84
2017-12-16T04:18:03.294Z,96.80
2017-12-16T04:20:30.872Z,96.63
2017-12-16T04:22:59.337Z,95.29
2017-12-16T04:25:26.995Z,96.52
2017-12-16T04:27:54.611Z,96.29
2017-12-16T04:30:22.178Z,95.05
2017-12-16T04:32:50.656Z,95.64
2017-12-16T04:35:18.226Z,95.81
2017-12-16T04:37:45.838Z,94.72
2017-12-16T04:40:13.402Z,94.92
2017-12-16T04:42:40.976Z,95.71
2017-12-16T04:45:08.552Z,95.58
2017-12-16T04:47:36.128Z,95.10
2017-12-16T04:50:03.699Z,95.78
2017-12-16T04:52:32.116Z,96.48
2017-12-16T04:54:59.728Z,94.98
2017-12-16T04:57:27.309Z,94.13
2017-12-16T04:59:54.918Z,94.09
2017-12-16T05:02:22.492Z,94.06
2017-12-16T05:04:50.103Z,94.30
2017-12-16T05:07:17.680Z,94.37
2017-12-16T05:09:45.343Z,94.51
2017-12-16T05:12:12.927Z,94.15
2017-12-16T05:14:40.506Z,94.93
2017-12-16T05:17:08.120Z,95.39
2017-12-16T05:19:35.695Z,95.48
2017-12-16T05:22:03.347Z,95.50
2017-12-16T05:24:30.962Z,94.81
2017-12-16T05:26:59.840Z,95.10
2017-12-16T05:29:27.475Z,94.66
2017-12-16T05:31:55.051Z,95.85
2017-12-16T05:34:23.539Z,94.75
2017-12-16T05:36:51.240Z,94.11
2017-12-16T05:39:18.843Z,94.39
2017-12-16T05:41:46.428Z,94.72
2017-12-16T05:44:14.002Z,94.29
2017-12-16T05:46:41.629Z,94.22
2017-12-16T05:49:09.201Z,94.09
2017-12-16T05:51:36.783Z,94.02
2017-12-16T05:54:04.462Z,94.27
2017-12-16T05:56:32.035Z,94.55
2017-12-16T05:58:59.609Z,94.33
2017-12-16T06:01:27.398Z,94.50
2017-12-16T06:03:55.016Z,94.04
2017-12-16T06:06:22.680Z,93.98
2017-12-16T06:08:51.149Z,94.04
2017-12-16T06:11:18.820Z,94.54
2017-12-16T06:16:18.426Z,94.61
2017-12-16T06:18:47.436Z,94.76
2017-12-16T06:21:15.911Z,94.72
2017-12-16T06:23:44.255Z,94.16
2017-12-16T06:26:11.908Z,94.89
2017-12-16T06:28:40.188Z,94.39
2017-12-16T06:31:08.554Z,94.28
2017-12-16T06:33:36.959Z,94.30
2017-12-16T06:36:05.352Z,94.66
2017-12-16T06:38:32.991Z,95.17
2017-12-16T06:41:01.474Z,94.43
2017-12-16T06:43:29.047Z,94.78
2017-12-16T06:45:57.465Z,95.31
2017-12-16T06:48:25.827Z,94.85
2017-12-16T06:50:54.221Z,94.69
2017-12-16T06:53:22.687Z,94.81
2017-12-16T06:55:50.307Z,94.38
2017-12-16T06:58:18.695Z,94.20
2017-12-16T07:00:46.279Z,94.11
2017-12-16T07:03:14.706Z,94.44
2017-12-16T07:05:43.073Z,94.37
2017-12-16T07:08:11.609Z,94.45
2017-12-16T07:10:40.099Z,94.10
2017-12-16T07:13:09.236Z,94.05
2017-12-16T07:15:37.743Z,94.57
2017-12-16T07:18:05.326Z,93.68
2017-12-16T07:20:33.727Z,94.62
2017-12-16T07:23:01.986Z,93.95
2017-12-16T07:25:30.330Z,93.98
2017-12-16T07:27:57.927Z,94.12
2017-12-16T07:30:25.720Z,94.17
2017-12-16T07:32:53.306Z,94.24
2017-12-16T07:35:20.910Z,93.85
2017-12-16T07:37:49.434Z,93.58
2017-12-16T07:40:17.008Z,94.46
2017-12-16T07:42:45.354Z,93.66
2017-12-16T07:45:12.935Z,93.58
2017-12-16T07:47:40.563Z,94.85
2017-12-16T07:50:08.136Z,94.58
2017-12-16T07:52:36.601Z,93.96
2017-12-16T07:55:05.115Z,93.48
2017-12-16T07:57:33.607Z,94.03
2017-12-16T08:00:01.985Z,94.50
2017-12-16T08:02:30.383Z,94.49
2017-12-16T08:04:58.667Z,93.82
2017-12-16T08:07:27.214Z,93.35
2017-12-16T08:09:54.858Z,92.83
2017-12-16T08:12:23.260Z,94.00
2017-12-16T08:14:51.732Z,93.93
2017-12-16T08:17:20.365Z,94.08
2017-12-16T08:19:48.778Z,93.40
2017-12-16T08:22:17.303Z,93.18
2017-12-16T08:24:45.572Z,93.14
2017-12-16T08:27:13.190Z,93.47
2017-12-16T08:29:40.770Z,92.87
2017-12-16T08:32:08.342Z,93.49
2017-12-16T08:34:35.916Z,93.35
2017-12-16T08:37:03.539Z,92.60
2017-12-16T08:39:31.119Z,92.10
2017-12-16T08:41:59.323Z,91.84
2017-12-16T08:44:26.903Z,92.70
2017-12-16T08:46:54.479Z,92.12
2017-12-16T08:49:22.172Z,91.74
2017-12-16T08:51:49.755Z,91.57
2017-12-16T08:54:17.331Z,92.13
2017-12-16T08:56:44.956Z,92.07
2017-12-16T08:59:12.534Z,92.60
2017-12-16T09:01:40.126Z,91.91
2017-12-16T09:04:07.762Z,91.38
2017-12-16T09:06:35.340Z,91.66
2017-12-16T09:09:03.699Z,91.09
2017-12-16T09:11:32.061Z,91.81
2017-12-16T09:13:59.638Z,92.11
2017-12-16T09:16:27.231Z,91.50
2017-12-16T09:18:54.806Z,91.45
2017-12-16T09:21:23.180Z,90.33
2017-12-16T09:23:50.761Z,90.89
2017-12-16T09:26:19.364Z,91.05
2017-12-16T09:28:47.855Z,89.92
2017-12-16T09:31:15.444Z,90.71
2017-12-16T09:33:43.023Z,89.58
2017-12-16T09:36:10.639Z,90.78
2017-12-16T09:38:38.219Z,89.59
2017-12-16T09:41:06.600Z,90.03
2017-12-16T09:43:34.238Z,89.86
2017-12-16T09:46:01.901Z,90.63
2017-12-16T09:48:29.567Z,90.48
2017-12-16T09:50:57.142Z,91.14
2017-12-16T09:53:25.632Z,90.60
2017-12-16T09:55:53.259Z,90.78
2017-12-16T09:58:21.735Z,90.41
2017-12-16T10:00:49.311Z,90.54
2017-12-16T10:03:16.895Z,90.67
2017-12-16T10:05:44.481Z,90.80
2017-12-16T10:08:12.077Z,89.84
2017-12-16T10:10:40.563Z,90.69
2017-12-16T10:13:08.151Z,89.46
2017-12-16T10:15:35.767Z,90.04
2017-12-16T10:18:03.348Z,88.22
2017-12-16T10:20:30.934Z,87.83
2017-12-16T10:22:59.208Z,86.43
2017-12-16T10:25:27.589Z,87.34
2017-12-16T10:27:56.056Z,85.54
2017-12-16T10:30:23.633Z,85.94
2017-12-16T10:32:51.257Z,87.54
2017-12-16T10:35:18.840Z,87.84
2017-12-16T10:37:46.519Z,85.13
2017-12-16T10:40:14.111Z,85.11
2017-12-16T10:42:43.120Z,85.63
2017-12-16T10:45:11.516Z,84.69
2017-12-16T10:47:39.888Z,85.99
2017-12-16T10:50:08.261Z,85.22
2017-12-16T10:52:35.912Z,85.99
2017-12-16T10:55:03.572Z,87.24
2017-12-16T10:57:31.395Z,87.07
2017-12-16T10:59:58.979Z,86.08
2017-12-16T11:02:26.561Z,86.92
2017-12-16T11:04:55.630Z,86.50
2017-12-16T11:07:24.023Z,85.52
2017-12-16T11:09:51.604Z,84.78
2017-12-16T11:12:19.185Z,86.17
2017-12-16T11:14:47.610Z,85.78
2017-12-16T11:17:15.233Z,85.94
2017-12-16T11:19:42.843Z,86.87
2017-12-16T11:22:12.203Z,88.15
2017-12-16T11:24:39.832Z,88.40
2017-12-16T11:27:07.424Z,88.44
2017-12-16T11:29:35.064Z,88.66
2017-12-16T11:32:02.644Z,89.01
2017-12-16T11:34:31.200Z,89.70
2017-12-16T11:36:59.507Z,89.65
2017-12-16T11:39:27.086Z,90.31
2017-12-16T11:41:54.712Z,90.92
2017-12-16T11:44:22.299Z,91.12
2017-12-16T11:46:49.884Z,90.03
2017-12-16T11:49:17.614Z,91.40
2017-12-16T11:51:45.199Z,91.95
2017-12-16T11:54:12.819Z,91.77
2017-12-16T11:56:41.210Z,91.59
2017-12-16T11:59:08.798Z,91.93
2017-12-16T12:01:36.516Z,91.77
2017-12-16T12:04:05.000Z,92.60
2017-12-16T12:06:32.587Z,93.20
2017-12-16T12:09:00.201Z,92.23
2017-12-16T12:11:28.584Z,91.56
2017-12-16T12:13:56.396Z,91.95
2017-12-16T12:16:24.008Z,91.40
2017-12-16T12:18:51.587Z,91.26
2017-12-16T12:21:19.173Z,91.80
2017-12-16T12:23:46.796Z,91.44
2017-12-16T12:26:14.486Z,91.51
2017-12-16T12:28:42.067Z,91.47
2017-12-16T12:31:09.784Z,92.59
2017-12-16T12:33:37.363Z,92.52
2017-12-16T12:36:05.724Z,93.06
2017-12-16T12:38:34.084Z,92.21
2017-12-16T12:41:02.611Z,92.00
2017-12-16T12:43:30.248Z,92.17
2017-12-16T12:45:57.823Z,92.03
2017-12-16T12:48:25.399Z,91.80
2017-12-16T12:50:53.677Z,91.47
2017-12-16T12:53:21.948Z,91.54
2017-12-16T12:55:49.529Z,92.12
2017-12-16T12:58:17.111Z,91.83
2017-12-16T13:00:44.690Z,91.88
2017-12-16T13:03:12.271Z,91.59
2017-12-16T13:05:39.902Z,90.76
2017-12-16T13:08:07.483Z,90.37
2017-12-16T13:10:35.127Z,90.55
2017-12-16T13:13:02.704Z,90.17
2017-12-16T13:15:30.375Z,90.42
2017-12-16T13:17:57.965Z,90.02
2017-12-16T13:20:25.781Z,89.83
2017-12-16T13:22:53.368Z,89.20
2017-12-16T13:25:21.030Z,89.36
2017-12-16T13:27:48.620Z,89.56
2017-12-16T13:30:16.198Z,89.83
2017-12-16T13:32:44.509Z,89.69
2017-12-16T13:35:12.187Z,89.88
2017-12-16T13:37:39.867Z,90.03
2017-12-16T13:40:07.480Z,90.56
2017-12-16T13:42:35.100Z,90.70
2017-12-16T13:45:03.686Z,90.35
2017-12-16T13:47:32.004Z,90.18
2017-12-16T13:49:59.717Z,90.09
2017-12-16T13:52:28.082Z,90.45
2017-12-16T13:54:55.663Z,90.75
2017-12-16T13:57:24.140Z,91.16
2017-12-16T13:59:52.503Z,90.66
2017-12-16T14:02:20.847Z,91.29
2017-12-16T14:04:49.232Z,91.28
2017-12-16T14:07:17.533Z,92.01
2017-12-16T14:09:45.163Z,91.62
2017-12-16T14:12:13.599Z,91.45
2017-12-16T14:14:42.135Z,91.07
2017-12-16T14:17:10.513Z,91.27
2017-12-16T14:19:38.127Z,91.57
2017-12-16T14:22:05.703Z,91.24
2017-12-16T14:24:33.278Z,92.01
2017-12-16T14:27:00.855Z,91.38
2017-12-16T14:29:28.457Z,91.47
2017-12-16T14:31:56.919Z,91.29
2017-12-16T14:34:24.495Z,91.31
2017-12-16T14:36:52.810Z,91.32
2017-12-16T14:39:21.160Z,90.90
2017-12-16T14:41:48.743Z,91.44
2017-12-16T14:44:17.223Z,91.76
2017-12-16T14:46:45.639Z,91.70
2017-12-16T14:49:14.003Z,92.15
2017-12-16T14:51:41.632Z,93.00
2017-12-16T14:54:10.111Z,93.00
2017-12-16T14:56:37.700Z,92.51
2017-12-16T14:59:05.332Z,92.93
2017-12-16T15:01:32.924Z,93.18
2017-12-16T15:04:00.514Z,93.06
2017-12-16T15:06:28.220Z,92.88
2017-12-16T15:08:55.823Z,92.62
2017-12-16T15:11:23.498Z,92.54
2017-12-16T15:13:51.113Z,94.22
2017-12-16T15:16:18.808Z,93.30
2017-12-16T15:18:47.066Z,93.18
2017-12-16T15:21:14.743Z,92.85
2017-12-16T15:23:42.508Z,93.12
2017-12-16T15:26:10.275Z,92.90
2017-12-16T15:28:38.759Z,92.94
2017-12-16T15:31:07.446Z,92.84
2017-12-16T15:33:35.167Z,93.11
2017-12-16T15:36:02.752Z,92.97
2017-12-16T15:38:30.403Z,93.11
2017-12-16T15:40:58.171Z,94.17
2017-12-16T15:43:25.983Z,93.59
2017-12-16T15:45:53.595Z,94.00
2017-12-16T15:48:21.206Z,93.78
2017-12-16T15:50:48.794Z,93.89
2017-12-16T15:53:16.411Z,93.93
2017-12-16T15:55:44.081Z,94.59
2017-12-16T15:58:11.706Z,94.43
2017-12-16T16:00:39.289Z,94.63
2017-12-16T16:03:06.873Z,94.81
2017-12-16T16:05:35.407Z,94.58
2017-12-16T16:08:03.070Z,94.54
2017-12-16T16:10:30.740Z,94.24
2017-12-16T16:12:58.323Z,94.87
2017-12-16T16:15:26.010Z,94.88
2017-12-16T16:17:53.719Z,95.15
2017-12-16T16:20:21.313Z,95.02
2017-12-16T16:22:49.031Z,95.02
2017-12-16T16:25:16.614Z,95.34
2017-12-16T16:27:44.194Z,95.23
2017-12-16T16:30:11.831Z,94.70
2017-12-16T16:32:39.468Z,94.67
2017-12-16T16:35:07.092Z,94.66
2017-12-16T16:37:35.522Z,95.04
2017-12-16T16:40:03.108Z,95.11
2017-12-16T16:42:30.687Z,94.63
2017-12-16T16:44:58.340Z,94.77
2017-12-16T16:47:25.951Z,94.68
2017-12-16T16:49:53.536Z,94.54
2017-12-16T16:52:21.180Z,95.32
2017-12-16T16:54:48.907Z,95.29
2017-12-16T16:57:16.512Z,94.79
2017-12-16T16:59:44.880Z,94.47
2017-12-16T17:02:12.470Z,94.54
2017-12-16T17:04:40.056Z,94.30
2017-12-16T17:07:07.675Z,93.86
2017-12-16T17:09:36.234Z,94.11
2017-12-16T17:12:03.980Z,93.71
2017-12-16T17:14:32.527Z,93.87
2017-12-16T17:17:01.005Z,93.80
2017-12-16T17:19:28.596Z,94.21
2017-12-16T17:21:56.178Z,94.18
2017-12-16T17:24:24.548Z,94.23
2017-12-16T17:26:52.907Z,94.01
2017-12-16T17:29:21.252Z,94.37
2017-12-16T17:31:49.807Z,94.14
2017-12-16T17:34:17.388Z,95.37
2017-12-16T17:36:45.133Z,94.78
2017-12-16T17:39:13.028Z,93.84
2017-12-16T17:41:44.872Z,93.83
2017-12-16T17:44:13.548Z,94.27
2017-12-16T17:46:42.111Z,93.99
2017-12-16T17:49:10.480Z,93.69
2017-12-16T17:51:38.174Z,93.80
2017-12-16T17:54:05.960Z,93.78
2017-12-16T17:56:33.614Z,94.03
2017-12-16T17:59:01.205Z,94.31
2017-12-16T18:01:28.850Z,94.03
2017-12-16T18:03:57.168Z,93.83
2017-12-16T18:06:24.815Z,93.98
2017-12-16T18:08:52.719Z,93.98
2017-12-16T18:11:20.994Z,94.58
2017-12-16T18:13:48.623Z,94.93
2017-12-16T18:16:16.238Z,95.07
2017-12-16T18:18:43.869Z,94.76
2017-12-16T18:21:12.266Z,94.72
2017-12-16T18:23:39.847Z,94.88
2017-12-16T18:26:07.467Z,94.81
2017-12-16T18:28:35.136Z,94.70
2017-12-16T18:31:02.787Z,94.52
2017-12-16T18:33:30.592Z,94.69
2017-12-16T18:35:58.168Z,94.33
2017-12-16T18:38:25.756Z,94.20
2017-12-16T18:40:53.416Z,94.32
2017-12-16T18:43:21.825Z,94.49
2017-12-16T18:45:50.523Z,95.16
2017-12-16T18:48:18.106Z,95.21
2017-12-16T18:50:45.904Z,94.53
2017-12-16T18:53:13.498Z,94.14
2017-12-16T18:55:41.212Z,93.99
2017-12-16T18:58:08.830Z,93.74
2017-12-16T19:00:36.495Z,94.15
2017-12-16T19:03:04.424Z,93.21
2017-12-16T19:05:32.170Z,93.25
2017-12-16T19:07:59.755Z,93.74
2017-12-16T19:10:27.341Z,93.98
2017-12-16T19:12:55.040Z,93.49
2017-12-16T19:15:22.703Z,92.80
2017-12-16T19:17:50.508Z,92.96
2017-12-16T19:20:18.732Z,93.43
2017-12-16T19:22:46.334Z,93.52
2017-12-16T19:25:14.008Z,93.19
2017-12-16T19:27:41.704Z,93.47
2017-12-16T19:30:09.368Z,92.65
2017-12-16T19:32:37.119Z,93.71
2017-12-16T19:35:04.783Z,93.42
2017-12-16T19:37:33.426Z,92.58
2017-12-16T19:40:01.012Z,92.66
2017-12-16T19:42:28.636Z,93.24
2017-12-16T19:44:56.248Z,93.10
2017-12-16T19:47:24.835Z,93.76
2017-12-16T19:49:52.415Z,93.94
2017-12-16T19:52:20.070Z,93.78
2017-12-16T19:54:47.989Z,93.81
2017-12-16T19:57:15.567Z,93.71
2017-12-16T19:59:43.158Z,93.70
2017-12-16T20:02:10.821Z,94.08
2017-12-16T20:04:38.533Z,93.44
2017-12-16T20:07:06.116Z,93.85
2017-12-16T20:09:33.699Z,93.84
2017-12-16T20:12:01.546Z,93.55
2017-12-16T20:14:30.040Z,94.14
2017-12-16T20:16:57.619Z,93.89
2017-12-16T20:19:25.227Z,93.61
2017-12-16T20:21:52.979Z,93.96
2017-12-16T20:24:20.606Z,94.18
2017-12-16T20:27:00.218Z,94.11
2017-12-16T20:29:27.906Z,93.84
2017-12-16T20:31:55.488Z,93.96
2017-12-16T20:34:23.072Z,94.11
2017-12-16T20:36:50.646Z,93.56
2017-12-16T20:39:19.139Z,93.38
2017-12-16T20:41:46.723Z,92.88
2017-12-16T20:44:14.305Z,93.35
2017-12-16T20:46:41.930Z,93.46
2017-12-16T20:49:09.684Z,93.54
2017-12-16T20:51:37.350Z,93.90
2017-12-16T20:54:05.047Z,93.85
2017-12-16T20:56:32.667Z,93.70
2017-12-16T20:59:00.277Z,94.20
2017-12-16T21:01:27.860Z,94.63
2017-12-16T21:03:55.562Z,94.54
2017-12-16T21:06:23.304Z,94.75
2017-12-16T21:08:50.935Z,95.13
2017-12-16T21:11:18.562Z,95.33
2017-12-16T21:13:46.643Z,95.42
2017-12-16T21:16:14.294Z,95.04
2017-12-16T21:18:43.347Z,95.29
2017-12-16T21:21:11.340Z,95.51
2017-12-16T21:23:39.905Z,95.33
2017-12-16T21:26:07.523Z,95.42
2017-12-16T21:28:35.168Z,95.69
2017-12-16T21:31:02.812Z,95.94
2017-12-16T21:33:31.805Z,95.74
2017-12-16T21:36:01.678Z,95.55
2017-12-16T21:38:29.571Z,95.42
2017-12-16T21:40:57.287Z,95.63
2017-12-16T21:43:24.924Z,95.45
2017-12-16T21:45:52.687Z,95.45
2017-12-16T21:48:20.267Z,95.46
2017-12-16T21:50:47.947Z,95.48
2017-12-16T21:53:15.535Z,95.39
2017-12-16T21:55:43.179Z,95.40
2017-12-16T21:58:10.754Z,95.27
2017-12-16T22:00:38.381Z,95.53
2017-12-16T22:03:06.083Z,95.62
2017-12-16T22:05:33.728Z,96.10
2017-12-16T22:08:01.394Z,95.61
2017-12-16T22:10:28.979Z,95.25
2017-12-16T22:12:56.610Z,95.72
2017-12-16T22:15:24.279Z,96.16
2017-12-16T22:17:51.871Z,96.14
2017-12-16T22:20:19.526Z,96.05
2017-12-16T22:22:47.159Z,95.92
2017-12-16T22:25:14.735Z,96.23
2017-12-16T22:27:42.847Z,96.31
2017-12-16T22:30:11.163Z,96.48
2017-12-16T22:32:38.743Z,95.71
2017-12-16T22:35:06.332Z,95.51
2017-12-16T22:37:33.915Z,95.35
2017-12-16T22:40:01.495Z,95.14
2017-12-16T22:42:29.108Z,95.19
2017-12-16T22:44:56.743Z,94.75
2017-12-16T22:47:24.324Z,94.89
2017-12-16T22:49:51.899Z,94.79
2017-12-16T22:52:20.342Z,94.26
2017-12-16T22:54:47.967Z,94.43
2017-12-16T22:57:16.484Z,94.24
2017-12-16T22:59:44.777Z,94.53
2017-12-16T23:02:12.377Z,94.38
2017-12-16T23:04:39.955Z,93.58
2017-12-16T23:07:07.614Z,93.53
2017-12-16T23:09:35.190Z,93.29
2017-12-16T23:12:03.462Z,93.54
2017-12-16T23:14:31.207Z,93.69
2017-12-16T23:16:58.788Z,93.98
2017-12-16T23:19:26.379Z,93.86
2017-12-16T23:21:53.963Z,93.79
2017-12-16T23:24:21.544Z,93.96
2017-12-16T23:26:49.162Z,93.82
2017-12-16T23:29:16.779Z,94.41
2017-12-16T23:31:44.487Z,94.63
2017-12-16T23:34:12.074Z,93.98
2017-12-16T23:36:39.646Z,94.29
2017-12-16T23:39:07.274Z,94.79
2017-12-16T23:41:34.935Z,94.69
2017-12-16T23:44:03.349Z,94.56
2017-12-16T23:46:30.932Z,94.18
2017-12-16T23:48:58.507Z,93.83
2017-12-16T23:51:26.087Z,93.67
2017-12-16T23:53:53.676Z,93.65
2017-12-16T23:56:21.321Z,93.77
2017-12-16T23:58:48.983Z,94.10
